createdAt,value
2022-08-28T00:03:34.124Z,66.90
2022-08-28T00:08:35.360Z,62.86
2022-08-28T00:13:36.615Z,58.28
2022-08-28T00:18:38.407Z,57.62
2022-08-28T00:23:42.697Z,58.27
2022-08-28T00:28:44.673Z,59.19
2022-08-28T00:33:48.097Z,58.79
2022-08-28T00:38:49.724Z,59.25
2022-08-28T00:44:24.155Z,59.72
2022-08-28T00:49:31.817Z,59.82
2022-08-28T00:54:37.739Z,60.32
2022-08-28T00:59:38.911Z,60.76
2022-08-28T01:04:40.225Z,69.77
2022-08-28T01:09:46.880Z,65.44
2022-08-28T01:14:52.753Z,56.83
2022-08-28T01:20:02.632Z,56.17
2022-08-28T01:25:10.567Z,57.46
2022-08-28T01:30:17.269Z,57.19
2022-08-28T01:35:25.280Z,58.28
2022-08-28T01:40:36.277Z,59.17
2022-08-28T01:45:40.228Z,59.94
2022-08-28T01:50:42.221Z,60.53
2022-08-28T01:55:43.775Z,62.05
2022-08-28T02:00:45.187Z,57.69
2022-08-28T02:05:46.635Z,59.26
2022-08-28T02:10:48.482Z,60.10
2022-08-28T02:15:51.111Z,61.54
2022-08-28T02:20:52.655Z,67.95
2022-08-28T02:25:53.970Z,62.00
2022-08-28T02:30:55.172Z,55.56
2022-08-28T02:35:56.542Z,54.60
2022-08-28T02:40:57.929Z,55.82
2022-08-28T02:45:59.149Z,56.78
2022-08-28T02:51:03.627Z,58.03
2022-08-28T02:56:05.509Z,59.06
2022-08-28T03:01:10.104Z,59.56
2022-08-28T03:06:12.395Z,60.80
2022-08-28T03:11:13.864Z,66.94
2022-08-28T03:16:15.135Z,64.25
2022-08-28T03:21:16.668Z,58.48
2022-08-28T03:26:19.625Z,56.39
2022-08-28T03:31:24.323Z,57.87
2022-08-28T03:36:27.755Z,58.75
2022-08-28T03:41:30.709Z,60.09
2022-08-28T03:46:33.524Z,61.15
2022-08-28T03:51:35.310Z,66.12
2022-08-28T03:56:36.427Z,63.44
2022-08-28T04:01:37.667Z,56.86
2022-08-28T04:06:38.867Z,55.94
2022-08-28T04:11:43.479Z,56.71
2022-08-28T04:16:44.639Z,57.54
2022-08-28T04:21:45.852Z,58.63
2022-08-28T04:26:46.992Z,59.42
2022-08-28T04:31:48.994Z,59.97
2022-08-28T04:36:51.184Z,60.51
2022-08-28T04:41:55.079Z,66.94
2022-08-28T04:46:57.928Z,63.72
2022-08-28T04:52:00.296Z,57.78
2022-08-28T04:57:02.026Z,56.68
2022-08-28T05:02:07.663Z,57.82
2022-08-28T05:07:08.921Z,58.98
2022-08-28T05:12:16.277Z,59.67
2022-08-28T05:17:17.551Z,60.10
2022-08-28T05:22:18.731Z,60.53
2022-08-28T05:27:20.013Z,60.72
2022-08-28T05:32:21.204Z,61.82
2022-08-28T05:37:22.416Z,65.85
2022-08-28T05:42:23.505Z,61.16
2022-08-28T05:47:31.993Z,55.07
2022-08-28T05:52:34.318Z,54.35
2022-08-28T05:57:35.476Z,52.60
2022-08-28T06:02:36.641Z,49.67
2022-08-28T06:07:37.849Z,49.58
2022-08-28T06:12:39.069Z,48.21
2022-08-28T06:17:41.659Z,47.14
2022-08-28T06:22:43.161Z,44.40
2022-08-28T06:27:44.315Z,42.64
2022-08-28T06:32:47.456Z,40.46
2022-08-28T06:37:49.216Z,39.38
2022-08-28T06:42:50.883Z,37.55
2022-08-28T06:47:52.031Z,36.44
2022-08-28T06:52:54.782Z,35.90
2022-08-28T06:57:55.981Z,34.35
2022-08-28T07:02:58.580Z,33.01
2022-08-28T07:08:00.136Z,32.61
2022-08-28T07:13:02.816Z,32.75
2022-08-28T07:18:03.938Z,32.03
2022-08-28T07:23:05.269Z,30.92
2022-08-28T07:28:07.632Z,30.76
2022-08-28T07:33:08.813Z,30.60
2022-08-28T07:38:10.808Z,30.72
2022-08-28T07:43:30.616Z,30.42
2022-08-28T07:48:36.195Z,30.50
2022-08-28T07:53:37.419Z,30.91
2022-08-28T07:58:38.941Z,31.46
2022-08-28T08:03:40.139Z,31.96
2022-08-28T08:08:41.667Z,32.91
2022-08-28T08:13:45.560Z,33.84
2022-08-28T08:18:48.257Z,35.04
2022-08-28T08:23:49.657Z,35.97
2022-08-28T08:28:51.708Z,37.06
2022-08-28T08:33:56.433Z,37.59
2022-08-28T08:38:59.272Z,37.93
2022-08-28T08:44:15.509Z,38.30
2022-08-28T08:49:19.829Z,38.75
2022-08-28T08:54:23.894Z,38.84
2022-08-28T08:59:38.149Z,39.07
2022-08-28T09:05:01.362Z,38.63
2022-08-28T09:10:06.968Z,38.63
2022-08-28T09:15:25.537Z,38.29
2022-08-28T09:20:32.909Z,38.35
2022-08-28T09:26:01.910Z,37.97
2022-08-28T09:31:12.053Z,37.15
2022-08-28T09:36:31.904Z,35.98
2022-08-28T09:42:36.975Z,35.33
2022-08-28T09:47:48.069Z,35.39
2022-08-28T09:52:51.556Z,35.01
2022-08-28T09:57:53.883Z,34.95
2022-08-28T10:03:14.124Z,35.32
2022-08-28T10:08:23.491Z,35.62
2022-08-28T10:13:39.649Z,35.22
2022-08-28T10:18:59.593Z,35.37
2022-08-28T10:24:26.665Z,35.55
2022-08-28T10:30:08.848Z,35.17
2022-08-28T10:35:50.297Z,34.95
2022-08-28T10:40:51.310Z,34.52
2022-08-28T10:45:54.172Z,34.59
2022-08-28T10:51:00.848Z,34.81
2022-08-28T10:56:14.960Z,33.76
2022-08-28T11:01:37.824Z,33.37
2022-08-28T11:06:51.430Z,33.90
2022-08-28T11:12:02.054Z,34.10
2022-08-28T11:17:08.369Z,33.13
2022-08-28T11:22:17.107Z,32.79
2022-08-28T11:27:32.330Z,32.82
2022-08-28T11:32:33.387Z,33.78
2022-08-28T11:37:54.132Z,33.49
2022-08-28T11:43:14.128Z,32.79
2022-08-28T11:48:36.745Z,30.98
2022-08-28T11:54:02.812Z,31.14
2022-08-28T11:59:25.683Z,31.51
2022-08-28T12:04:42.187Z,31.06
2022-08-28T12:09:49.114Z,31.13
2022-08-28T12:15:00.715Z,31.38
2022-08-28T12:20:09.674Z,31.52
2022-08-28T12:25:23.457Z,32.02
2022-08-28T12:30:34.550Z,32.65
2022-08-28T12:35:36.184Z,32.84
2022-08-28T12:40:37.348Z,32.03
2022-08-28T12:46:00.331Z,31.22
2022-08-28T12:51:08.391Z,31.34
2022-08-28T12:56:12.295Z,30.41
2022-08-28T13:01:23.043Z,30.81
2022-08-28T13:06:29.045Z,30.61
2022-08-28T13:11:36.160Z,30.70
2022-08-28T13:16:41.077Z,31.53
2022-08-28T13:21:51.141Z,31.69
2022-08-28T13:27:20.755Z,32.93
2022-08-28T13:32:22.654Z,32.16
2022-08-28T13:37:43.017Z,31.94
2022-08-28T13:42:45.834Z,31.78
2022-08-28T13:47:47.024Z,32.46
2022-08-28T13:52:48.210Z,33.49
2022-08-28T13:57:49.426Z,34.99
2022-08-28T14:03:08.957Z,34.67
2022-08-28T14:08:10.315Z,34.52
2022-08-28T14:13:12.133Z,34.21
2022-08-28T14:18:13.716Z,34.68
2022-08-28T14:23:15.287Z,35.38
2022-08-28T14:28:17.078Z,36.28
2022-08-28T14:33:18.837Z,38.30
2022-08-28T14:38:22.433Z,39.73
2022-08-28T14:43:24.068Z,40.38
2022-08-28T14:48:25.914Z,42.25
2022-08-28T14:53:27.204Z,42.07
2022-08-28T14:58:31.784Z,38.98
2022-08-28T15:03:33.479Z,38.18
2022-08-28T15:08:36.127Z,37.55
2022-08-28T15:13:37.399Z,37.61
2022-08-28T15:18:40.512Z,37.56
2022-08-28T15:23:43.008Z,37.53
2022-08-28T15:28:44.857Z,37.45
2022-08-28T15:33:46.037Z,38.34
2022-08-28T15:39:06.553Z,38.31
2022-08-28T15:44:10.067Z,38.24
2022-08-28T15:49:17.603Z,38.08
2022-08-28T15:54:22.218Z,38.10
2022-08-28T15:59:23.655Z,39.44
2022-08-28T16:04:27.073Z,43.81
2022-08-28T16:09:28.860Z,46.05
2022-08-28T16:14:31.986Z,49.27
2022-08-28T16:19:33.108Z,49.94
2022-08-28T16:24:34.541Z,52.67
2022-08-28T16:29:36.391Z,52.67
2022-08-28T16:34:39.124Z,53.53
2022-08-28T16:39:40.936Z,54.90
2022-08-28T16:44:42.042Z,56.20
2022-08-28T16:49:43.413Z,58.89
2022-08-28T16:54:47.484Z,61.23
2022-08-28T16:59:52.883Z,58.99
2022-08-28T17:04:57.428Z,61.96
2022-08-28T17:09:59.382Z,63.22
2022-08-28T17:15:00.727Z,63.81
2022-08-28T17:20:04.734Z,62.75
2022-08-28T17:25:13.006Z,61.46
2022-08-28T17:30:14.943Z,58.95
2022-08-28T17:35:16.595Z,57.73
2022-08-28T17:40:17.848Z,59.93
2022-08-28T17:45:19.518Z,63.19
2022-08-28T17:50:21.230Z,63.94
2022-08-28T17:55:22.541Z,63.57
2022-08-28T18:00:24.945Z,63.60
2022-08-28T18:05:26.383Z,62.70
2022-08-28T18:10:32.763Z,62.07
2022-08-28T18:15:34.110Z,60.24
2022-08-28T18:20:39.573Z,58.51
2022-08-28T18:25:40.915Z,64.67
2022-08-28T18:30:46.856Z,65.32
2022-08-28T18:35:56.409Z,65.53
2022-08-28T18:40:58.992Z,64.89
2022-08-28T18:46:01.814Z,63.48
2022-08-28T18:51:06.862Z,62.65
2022-08-28T18:56:08.644Z,62.13
2022-08-28T19:01:12.012Z,61.52
2022-08-28T19:06:14.343Z,59.23
2022-08-28T19:11:15.576Z,59.61
2022-08-28T19:16:19.714Z,63.88
2022-08-28T19:21:21.108Z,65.29
2022-08-28T19:26:24.008Z,63.97
2022-08-28T19:31:26.119Z,63.34
2022-08-28T19:36:29.808Z,62.50
2022-08-28T19:41:31.767Z,61.35
2022-08-28T19:46:35.271Z,61.90
2022-08-28T19:51:37.895Z,61.72
2022-08-28T19:56:39.974Z,61.11
2022-08-28T20:01:44.023Z,60.94
2022-08-28T20:06:45.469Z,57.81
2022-08-28T20:11:48.291Z,59.32
2022-08-28T20:16:50.786Z,63.62
2022-08-28T20:21:51.976Z,64.78
2022-08-28T20:26:53.122Z,63.18
2022-08-28T20:31:54.337Z,62.81
2022-08-28T20:36:55.521Z,61.87
2022-08-28T20:41:56.882Z,62.29
2022-08-28T20:46:58.143Z,62.14
2022-08-28T20:52:01.240Z,62.48
2022-08-28T20:57:08.998Z,62.14
2022-08-28T21:02:14.245Z,61.65
2022-08-28T21:07:18.115Z,59.67
2022-08-28T21:12:19.253Z,61.47
2022-08-28T21:17:28.704Z,66.80
2022-08-28T21:22:33.006Z,66.33
2022-08-28T21:27:37.317Z,64.71
2022-08-28T21:32:39.543Z,63.95
2022-08-28T21:37:41.428Z,62.81
2022-08-28T21:42:43.678Z,62.92
2022-08-28T21:47:44.754Z,63.30
2022-08-28T21:52:46.283Z,63.68
2022-08-28T21:57:47.988Z,63.56
2022-08-28T22:02:49.733Z,64.13
2022-08-28T22:07:51.196Z,64.40
2022-08-28T22:12:52.332Z,63.69
2022-08-28T22:17:54.039Z,63.53
2022-08-28T22:23:13.940Z,62.46
2022-08-28T22:28:15.275Z,63.27
2022-08-28T22:33:16.543Z,64.04
2022-08-28T22:38:19.792Z,63.43
2022-08-28T22:43:21.555Z,64.25
2022-08-28T22:48:22.710Z,63.35
2022-08-28T22:53:24.082Z,65.12
2022-08-28T22:58:26.803Z,65.12
2022-08-28T23:03:28.054Z,66.40
2022-08-28T23:08:33.706Z,66.81
2022-08-28T23:13:36.084Z,66.55
2022-08-28T23:19:06.758Z,66.46
2022-08-28T23:23:59.564Z,66.44
2022-08-28T23:29:00.786Z,66.44
2022-08-28T23:34:03.373Z,66.54
2022-08-28T23:39:06.345Z,66.51
2022-08-28T23:44:09.169Z,67.25
2022-08-28T23:49:12.059Z,66.67
2022-08-28T23:54:13.907Z,65.90
2022-08-28T23:59:15.035Z,65.66
